Latest Weather Observations for Albury

IDN60801

Issued at 8:05 pm EST Monday 28 July 2014 (issued every 30 minutes, with the page automatically refreshed every 10 minutes)

About weather observations | Map of weather stations | Latest weather observations for NSW | Other Formats
Station Details ID: 072160 Name: ALBURY AIRPORT AWS Lat: -36.07 Lon: 146.95 Height: 163.5 m
Data from the previous 72 hours. | See also: Recent months at Albury
Date/Time
EST
Temp
°C
App
Temp
°C
Dew
Point
Rel
Hum
%
Delta-T
°C
Wind Press
QNH
hPa
Press
MSL
hPa
Rain
since 9 am
mm
Dir
 
Spd
km/h
Gust
km/h
Spd
kts
Gust
kts
28/08:00pm 10.2 8.9 7.8 85 1.2 SSE 4 7 2 4 1018.2 1018.5 0.0
28/07:30pm 11.3 9.8 8.5 83 1.4 E 6 9 3 5 1017.9 - 0.0
28/07:00pm 11.2 9.2 8.6 84 1.3 NE 9 13 5 7 1017.8 1018.1 0.0
28/06:30pm 11.4 9.0 8.8 84 1.3 NE 11 17 6 9 1018.0 - 0.0
28/06:00pm 11.9 10.3 8.7 81 1.6 ENE 7 11 4 6 1018.1 1018.4 0.0
28/05:30pm 12.0 9.6 8.7 80 1.7 NE 11 15 6 8 1018.1 - 0.0
28/05:00pm 12.5 10.9 8.8 78 1.9 ENE 7 9 4 5 1018.0 1018.3 0.0
28/04:30pm 12.9 10.5 8.6 75 2.2 NE 11 17 6 9 1017.9 - 0.0
28/04:00pm 14.3 11.6 8.9 70 2.8 NNE 13 22 7 12 1017.9 1018.2 0.0
28/03:30pm 14.5 11.3 8.5 67 3.0 NNE 15 20 8 11 1017.8 - 0.0
28/03:00pm 14.4 10.7 8.1 66 3.2 NE 17 20 9 11 1018.1 1018.4 0.0
28/02:30pm 14.5 11.5 7.8 64 3.4 NNE 13 19 7 10 1018.3 - 0.0
28/02:00pm 14.2 11.4 8.4 68 2.9 NE 13 17 7 9 1018.4 1018.7 0.0
28/01:30pm 13.7 10.8 8.3 70 2.7 NNE 13 19 7 10 1018.9 - 0.0
28/01:00pm 12.9 10.1 7.1 68 2.8 NNE 11 15 6 8 1019.4 1019.8 0.0
28/12:30pm 12.6 9.1 7.1 69 2.7 NNE 15 19 8 10 1020.0 - 0.0
28/12:00pm 13.2 10.6 7.9 70 2.6 N 11 17 6 9 1020.1 1020.5 0.0
28/11:30am 13.5 10.7 8.6 72 2.5 N 13 20 7 11 1020.8 - 0.0
28/11:00am 11.5 10.7 11.2 98 0.2 ESE 6 9 3 5 1021.4 1021.8 0.0
28/10:30am 9.1 7.2 9.1 100 0.0 SSE 9 13 5 7 1021.7 - 0.0
28/10:15am 8.1 6.3 8.1 100 0.0 SSE 7 9 4 5 1022.0 - 0.0
28/10:10am 7.8 6.2 7.8 100 0.0 SSE 6 9 3 5 1021.9 - 0.0
28/10:00am 7.5 5.8 7.5 100 0.0 SE 6 7 3 4 1021.9 1022.3 0.0
28/09:30am 6.0 3.9 6.0 100 0.0 SSE 6 7 3 4 1021.9 - 0.0
28/09:00am 4.8 3.6 4.8 100 0.0 CALM 0 0 0 0 1022.2 1022.5 0.2
28/08:30am 3.7 2.3 3.7 100 0.0 CALM 0 0 0 0 1022.2 - 0.2
28/08:00am 3.0 1.5 3.0 100 0.0 CALM 0 0 0 0 1022.3 1022.6 0.2
28/07:30am 2.9 1.4 2.9 100 0.0 CALM 0 0 0 0 1022.3 - 0.2
28/07:00am 3.6 2.2 3.6 100 0.0 CALM 0 0 0 0 1022.2 1022.5 0.2
28/06:30am 3.5 2.1 3.5 100 0.0 CALM 0 0 0 0 1022.0 - 0.0
28/06:00am 3.2 1.7 3.2 100 0.0 CALM 0 0 0 0 1021.7 1022.1 0.0
28/05:30am 3.0 0.7 3.0 100 0.0 ENE 4 6 2 3 1021.9 - 0.0
28/05:00am 3.5 1.7 3.5 100 0.0 NE 2 6 1 3 1022.0 1022.4 0.0
28/04:30am 3.6 2.2 3.6 100 0.0 CALM 0 0 0 0 1022.2 - 0.0
28/04:00am 3.6 2.2 3.6 100 0.0 CALM 0 0 0 0 1022.2 1022.5 0.0
28/03:30am 4.0 2.3 4.0 100 0.0 SSE 2 6 1 3 1022.0 - 0.0
28/03:00am 4.0 2.7 4.0 100 0.0 CALM 0 0 0 0 1022.6 1022.9 0.0
28/02:30am 4.1 2.0 4.1 100 0.0 N 4 7 2 4 1022.7 - 0.0
28/02:00am 4.8 3.6 4.8 100 0.0 CALM 0 0 0 0 1022.8 1023.1 0.0
28/01:30am 5.0 3.5 5.0 100 0.0 N 2 6 1 3 1023.0 - 0.0
28/01:18am 4.8 2.5 4.8 100 0.0 N 6 7 3 4 1023.0 - 0.0
28/01:00am 5.2 4.1 5.2 100 0.0 CALM 0 0 0 0 1023.2 1023.5 0.0
28/12:30am 5.1 4.0 5.1 100 0.0 CALM 0 0 0 0 1023.7 - 0.0
28/12:12am 5.1 4.0 5.1 100 0.0 CALM 0 0 0 0 1023.7 - 0.0
28/12:00am 5.5 4.5 5.5 100 0.0 E 0 0 0 0 1023.7 1024.0 0.0
 
Date/Time
EST
Temp
°C
App
Temp
°C
Dew
Point
Rel
Hum
%
Delta-T
°C
Wind Press
QNH
hPa
Press
MSL
hPa
Rain
since 9 am
mm
Dir
 
Spd
km/h
Gust
km/h
Spd
kts
Gust
kts
27/11:53pm 5.3 4.2 5.3 100 0.0 CALM 0 6 0 3 1023.6 - 0.0
27/11:30pm 5.9 3.6 5.9 100 0.0 S 7 9 4 5 1023.9 - 0.0
27/11:14pm 6.1 4.1 6.1 100 0.0 E 6 9 3 5 1024.0 - 0.0
27/11:00pm 5.8 3.1 5.8 100 0.0 E 9 9 5 5 1023.7 1024.0 0.0
27/10:37pm 7.0 4.6 7.0 100 0.0 E 9 9 5 5 1023.9 - 0.0
27/10:30pm 6.9 4.5 6.9 100 0.0 E 9 9 5 5 1024.0 - 0.0
27/10:04pm 6.0 4.3 6.0 100 0.0 E 4 9 2 5 1024.5 - 0.0
27/10:03pm 6.3 4.3 6.3 100 0.0 E 6 9 3 5 1024.5 - 0.0
27/10:00pm 6.4 4.4 6.4 100 0.0 E 6 9 3 5 1024.4 1024.8 0.0
27/09:41pm 6.5 4.6 6.5 100 0.0 E 6 9 3 5 1024.5 - 0.0
27/09:39pm 6.6 4.7 6.6 100 0.0 E 6 7 3 4 1024.5 - 0.0
27/09:30pm 7.3 5.5 7.3 100 0.0 SSE 6 7 3 4 1024.6 - 0.0
27/09:00pm 7.0 5.9 7.0 100 0.0 E 2 6 1 3 1024.6 1025.0 0.0
27/08:57pm 7.1 6.0 7.1 100 0.0 E 2 6 1 3 1024.6 - 0.0
27/08:30pm 7.6 7.0 7.6 100 0.0 CALM 0 0 0 0 1024.7 - 0.0
27/08:00pm 7.5 6.9 7.2 98 0.1 CALM 0 0 0 0 1024.7 1025.1 0.0
27/07:30pm 8.0 7.5 7.7 98 0.1 CALM 0 0 0 0 1024.7 - 0.0
27/07:00pm 8.4 7.9 7.8 96 0.3 CALM 0 0 0 0 1024.7 1025.1 0.0
27/06:30pm 8.2 7.5 6.8 91 0.7 CALM 0 0 0 0 1024.5 - 0.0
27/06:00pm 9.0 7.7 7.5 90 0.7 NE 4 6 2 3 1024.3 1024.7 0.0
27/05:30pm 10.1 8.5 8.2 88 0.9 NE 6 7 3 4 1024.0 - 0.0
27/05:00pm 10.6 8.5 8.4 86 1.1 NE 9 15 5 8 1023.6 1023.9 0.0
27/04:30pm 11.2 9.5 8.2 82 1.5 E 7 9 4 5 1023.8 - 0.0
27/04:13pm 11.5 10.8 8.4 81 1.5 E 2 7 1 4 1024.0 - 0.0
27/04:00pm 11.8 11.1 8.6 81 1.6 E 2 6 1 3 1024.2 1024.6 0.0
27/03:30pm 11.9 10.5 8.9 82 1.5 S 6 11 3 6 1024.4 - 0.0
27/03:00pm 11.1 9.6 8.3 83 1.4 NE 6 7 3 4 1024.8 1025.2 0.0
27/02:30pm 11.1 9.4 8.5 84 1.3 N 7 11 4 6 1024.8 - 0.0
27/02:00pm 10.6 9.0 8.7 88 0.9 NE 7 11 4 6 1025.0 1025.4 0.0
27/01:30pm 10.0 7.9 8.3 89 0.8 NE 9 13 5 7 1025.2 - 0.0
27/01:00pm 10.1 8.7 9.0 93 0.5 NNE 6 9 3 5 1025.2 1025.6 0.0
27/12:30pm 9.7 8.2 9.1 96 0.3 NNE 7 11 4 6 1025.9 - 0.0
27/12:00pm 10.0 8.9 10.0 100 0.0 NNW 6 9 3 5 1026.4 1026.8 0.0
27/11:30am 8.7 7.3 8.7 100 0.0 NNW 6 9 3 5 1027.0 - 0.0
27/11:00am 8.6 7.9 8.6 100 0.0 NNW 2 9 1 5 1027.3 1027.7 0.0
27/10:56am 8.5 7.8 8.5 100 0.0 NNW 2 6 1 3 1027.3 - 0.0
27/10:30am 8.1 7.3 8.1 100 0.0 NNE 2 6 1 3 1027.2 - 0.0
27/10:00am 8.0 7.2 8.0 100 0.0 N 2 6 1 3 1027.2 1027.6 0.0
27/09:30am 7.9 6.3 7.9 100 0.0 NNW 6 7 3 4 1027.0 - 0.0
27/09:00am 7.6 5.7 7.6 100 0.0 NNW 7 9 4 5 1026.9 1027.3 0.0
27/08:30am 7.5 5.6 7.5 100 0.0 NNW 7 9 4 5 1026.8 - 0.0
27/08:00am 7.5 5.6 7.5 100 0.0 NW 7 9 4 5 1026.7 1027.1 0.0
27/07:30am 7.7 6.0 7.7 100 0.0 NNW 6 9 3 5 1026.3 - 0.0
27/07:00am 7.5 5.8 7.5 100 0.0 W 6 7 3 4 1025.9 1026.3 0.0
27/06:30am 7.5 5.6 7.5 100 0.0 W 7 9 4 5 1025.8 - 0.0
27/06:00am 7.6 5.7 7.6 100 0.0 W 7 9 4 5 1025.8 1026.2 0.0
27/05:30am 8.0 7.5 8.0 100 0.0 CALM 0 0 0 0 1025.5 - 0.0
27/05:00am 8.3 7.9 8.3 100 0.0 CALM 0 0 0 0 1025.3 1025.7 0.0
27/04:30am 8.4 6.7 8.4 100 0.0 NW 7 11 4 6 1025.2 - 0.0
27/04:17am 8.6 7.0 8.6 100 0.0 N 7 9 4 5 1025.2 - 0.0
27/04:11am 8.6 6.6 8.6 100 0.0 N 9 11 5 6 1025.2 - 0.0
27/04:00am 8.6 7.0 8.6 100 0.0 N 7 9 4 5 1025.1 1025.5 0.0
27/03:30am 8.1 7.7 8.1 100 0.0 CALM 0 0 0 0 1025.2 - 0.0
27/03:00am 7.8 7.3 7.8 100 0.0 CALM 0 0 0 0 1025.2 1025.6 0.0
27/02:55am 8.0 7.5 8.0 100 0.0 CALM 0 0 0 0 1025.3 - 0.0
27/02:30am 8.0 6.4 8.0 100 0.0 W 6 9 3 5 1025.3 - 0.0
27/02:00am 7.7 7.2 7.7 100 0.0 CALM 0 0 0 0 1025.5 1025.9 0.0
27/01:43am 8.0 7.5 7.9 99 0.0 CALM 0 0 0 0 1025.5 - 0.0
27/01:30am 8.6 8.3 8.6 100 0.0 CALM 0 0 0 0 1025.6 - 0.0
27/01:00am 8.7 7.3 8.7 100 0.0 E 6 9 3 5 1025.7 1026.1 0.0
27/12:37am 8.7 8.4 8.7 100 0.0 CALM 0 0 0 0 1025.7 - 0.0
27/12:30am 8.8 8.5 8.8 100 0.0 CALM 0 0 0 0 1025.9 - 0.0
27/12:00am 9.0 8.8 9.0 100 0.0 CALM 0 0 0 0 1026.0 1026.4 0.0
 
Date/Time
EST
Temp
°C
App
Temp
°C
Dew
Point
Rel
Hum
%
Delta-T
°C
Wind Press
QNH
hPa
Press
MSL
hPa
Rain
since 9 am
mm
Dir
 
Spd
km/h
Gust
km/h
Spd
kts
Gust
kts
26/11:30pm 8.8 8.5 8.7 99 0.0 CALM 0 0 0 0 1026.0 - 0.0
26/11:27pm 8.7 8.3 8.4 98 0.1 CALM 0 0 0 0 1026.0 - 0.0
26/11:00pm 8.8 8.5 8.5 98 0.1 CALM 0 0 0 0 1026.0 1026.4 0.0
26/10:30pm 8.8 7.1 8.2 96 0.3 N 7 7 4 4 1025.9 - 0.0
26/10:00pm 9.5 9.3 8.9 96 0.3 CALM 0 0 0 0 1026.0 1026.4 0.0
26/09:30pm 9.5 9.2 8.6 94 0.4 CALM 0 0 0 0 1026.1 - 0.0
26/09:00pm 9.6 8.6 8.8 95 0.4 NW 4 9 2 5 1025.9 1026.3 0.0
26/08:30pm 9.1 7.1 8.5 96 0.3 WNW 9 9 5 5 1025.6 - 0.0
26/08:00pm 9.6 7.6 8.5 93 0.5 WNW 9 15 5 8 1025.3 1025.7 0.0
26/07:30pm 10.2 8.5 8.3 88 0.9 WNW 7 13 4 7 1025.3 - 0.0
26/07:00pm 11.0 8.3 8.8 86 1.1 W 13 19 7 10 1025.0 1025.4 0.0
26/06:30pm 11.2 9.2 8.8 85 1.2 WNW 9 13 5 7 1024.7 - 0.0
26/06:00pm 11.8 9.9 9.2 84 1.3 WNW 9 11 5 6 1024.5 1024.9 0.0
26/05:30pm 12.4 9.8 9.4 82 1.5 WNW 13 19 7 10 1024.3 - 0.0
26/05:00pm 12.5 10.3 9.5 82 1.5 WNW 11 13 6 7 1024.1 1024.5 0.0
26/04:30pm 12.9 10.7 9.5 80 1.7 WNW 11 17 6 9 1024.0 - 0.0
26/04:00pm 13.2 11.0 9.3 77 2.0 WNW 11 17 6 9 1023.7 1024.0 0.0
26/03:30pm 13.3 11.4 9.2 76 2.1 W 9 13 5 7 1023.7 - 0.0
26/03:00pm 13.2 11.4 9.3 77 2.0 WNW 9 13 5 7 1023.6 1023.9 0.0
26/02:30pm 13.3 10.7 9.4 77 2.0 W 13 17 7 9 1023.6 - 0.0
26/02:28pm 13.3 10.7 9.4 77 2.0 W 13 17 7 9 1023.6 - 0.0
26/02:04pm 13.3 12.5 9.7 79 1.9 SW 4 9 2 5 1023.4 - 0.0
26/02:00pm 13.2 12.0 9.6 79 1.8 SW 6 9 3 5 1023.3 1023.6 0.0
26/01:30pm 13.1 12.0 9.9 81 1.7 WSW 6 9 3 5 1023.5 - 0.0
26/01:00pm 12.7 12.2 9.2 79 1.8 WSW 2 7 1 4 1023.8 1024.1 0.0
26/12:30pm 12.1 11.2 9.1 82 1.5 ENE 4 7 2 4 1024.2 - 0.0
26/12:00pm 11.4 10.2 9.5 88 1.0 ESE 6 9 3 5 1024.6 1025.0 0.0
26/11:30am 10.7 9.8 9.3 91 0.7 WSW 4 7 2 4 1025.1 - 0.0
26/11:00am 10.1 10.2 10.1 100 0.0 CALM 0 0 0 0 1025.3 1025.7 0.0
26/10:30am 9.2 7.9 9.2 100 0.0 ENE 6 7 3 4 1025.4 - 0.0
26/10:00am 8.5 7.0 8.5 100 0.0 ENE 6 7 3 4 1025.4 1025.8 0.0
26/09:30am 7.5 6.9 7.5 100 0.0 CALM 0 2 0 1 1025.2 - 0.0
26/09:00am 6.7 5.2 6.7 100 0.0 S 4 7 2 4 1025.0 1025.4 0.2
26/08:30am 6.2 4.2 6.2 100 0.0 E 6 7 3 4 1024.6 - 0.2
26/08:00am 5.8 4.8 5.8 100 0.0 CALM 0 0 0 0 1024.3 1024.7 0.2
26/07:30am 5.7 4.3 5.7 100 0.0 ENE 2 6 1 3 1024.1 - 0.2
26/07:05am 5.3 3.1 5.3 100 0.0 NNW 6 7 3 4 1023.6 - 0.2
26/07:00am 5.2 3.0 5.2 100 0.0 W 6 7 3 4 1023.6 1023.9 0.2
26/06:30am 4.5 3.3 4.5 100 0.0 CALM 0 0 0 0 1023.2 - 0.2
26/06:00am 4.5 2.9 4.5 100 0.0 NNE 2 6 1 3 1023.1 1023.4 0.2
26/05:30am 4.5 2.1 4.5 100 0.0 NE 6 7 3 4 1022.8 - 0.2
26/05:00am 4.9 3.8 4.9 100 0.0 CALM 0 0 0 0 1022.6 1022.9 0.2
26/04:30am 5.5 4.5 5.5 100 0.0 CALM 0 0 0 0 1022.4 - 0.2
26/04:00am 5.1 3.6 5.1 100 0.0 ENE 2 7 1 4 1022.3 1022.6 0.2
26/03:30am 5.8 4.1 5.8 100 0.0 ENE 4 6 2 3 1022.5 - 0.2
26/03:00am 5.7 4.7 5.7 100 0.0 CALM 0 0 0 0 1022.8 1023.1 0.2
26/02:30am 5.6 4.6 5.6 100 0.0 CALM 0 0 0 0 1022.8 - 0.2
26/02:11am 6.6 5.8 6.6 100 0.0 CALM 0 0 0 0 1022.8 - 0.2
26/02:06am 6.7 5.9 6.7 100 0.0 CALM 0 0 0 0 1022.8 - 0.2
26/02:00am 7.0 5.9 7.0 100 0.0 WNW 2 6 1 3 1022.8 1023.1 0.2
26/01:54am 6.8 4.9 6.8 100 0.0 WNW 6 9 3 5 1022.9 - 0.2
26/01:37am 7.2 4.8 7.2 100 0.0 ESE 9 11 5 6 1022.6 - 0.2
26/01:30am 7.1 5.1 7.1 100 0.0 ESE 7 11 4 6 1022.6 - 0.0
26/01:18am 6.9 4.9 6.9 100 0.0 NNW 7 15 4 8 1022.9 - 0.0
26/01:04am 5.8 4.8 5.8 100 0.0 CALM 0 6 0 3 1022.6 - 0.0
26/01:00am 6.0 4.7 6.0 100 0.0 NE 2 7 1 4 1022.6 1022.9 0.0
26/12:45am 5.9 4.2 5.9 100 0.0 NNE 4 7 2 4 1022.6 - 0.0
26/12:35am 5.9 5.0 5.9 100 0.0 CALM 0 0 0 0 1022.6 - 0.0
26/12:30am 5.8 4.8 5.8 100 0.0 CALM 0 0 0 0 1022.5 - 0.0
26/12:16am 5.7 4.7 5.7 100 0.0 CALM 0 0 0 0 1022.5 - 0.0
26/12:00am 4.9 3.8 4.9 100 0.0 CALM 0 0 0 0 1022.5 1022.8 0.0
 
Date/Time
EST
Temp
°C
App
Temp
°C
Dew
Point
Rel
Hum
%
Delta-T
°C
Wind Press
QNH
hPa
Press
MSL
hPa
Rain
since 9 am
mm
Dir
 
Spd
km/h
Gust
km/h
Spd
kts
Gust
kts
25/11:30pm 5.3 3.4 5.0 98 0.1 NE 4 7 2 4 1022.6 - 0.0
25/11:25pm 5.1 3.6 4.8 98 0.1 NE 2 7 1 4 1022.5 - 0.0
25/11:00pm 6.4 5.5 6.1 98 0.1 CALM 0 0 0 0 1022.4 1022.7 0.0
25/10:30pm 6.1 5.1 5.8 98 0.1 CALM 0 0 0 0 1022.3 - 0.0
25/10:00pm 6.2 5.2 5.6 96 0.3 CALM 0 0 0 0 1022.3 1022.6 0.0
25/09:30pm 6.6 5.7 6.2 97 0.2 CALM 0 4 0 2 1022.2 - 0.0
25/09:00pm 7.2 6.4 6.3 94 0.4 CALM 0 0 0 0 1021.9 1022.3 0.0
25/08:30pm 8.1 6.6 6.9 92 0.6 E 4 6 2 3 1021.8 - 0.0

Other Formats:

Comma delimited format used in spreadsheet applications
http://www.bom.gov.au/fwo/IDN60801/IDN60801.95896.axf

JavaScript Object Notation format (JSON) in row-major order
http://www.bom.gov.au/fwo/IDN60801/IDN60801.95896.json